Etusivu
METAR-TAF:

METAR-TAF

Lentoasemat :

Chaitén, Chile

Leveyspiiri: 42-55-58S, Pituuspiiri: 072-41-58W, korkeus merenpinnasta: 4 m

Tämänhetkinen sää

Tämä raportti tehtiin 40 minuuttia sitten, kello 10.00 UTC
Tuuli 9 kn pohjoisesta
Lämpötila 12°C
Kosteus 76%
Ilmanpaine 1011 hPa
Näkyvyys 10 km tai enemmän
Muutamia pilviä 4800 ft:n korkeudessa

METAR: SCTN 281000Z AUTO 35009KT 9999 FEW048 12/08 Q1011

Aika: 06:40 (10:40 UTC)


TAF: puuttuu

Säähavainnot ja -ennusteet yli 4000 lentoasemalta (METAR- ja TAF-raportit).

Käytössä olevat sääasemat on merkitty karttaan keltaisilla ja punaisilla pisteillä.

Aseta hiiri pisteen päälle nähdäksesi sääaseman nimen.

Klikkaa sitten nähdäksesi säähavainnot ja -ennusteet.

Kartan vaihtaminen: klikkaa mustalla rastilla varustettuja vihreitä pisteitä, niin voit zoomata sisään; viivalla varustettua vihreää pistettä, niin voit zoomata ulos tai vihreitä nuolia, niin pääset viereisille kartoille.


METAR-TAF: